sensor_id;sensor_type;location;lat;lon;timestamp;P1;durP1;ratioP1;P2;durP2;ratioP2
41921;SDS011;27609;51.002;5.354;2023-04-24T00:00:05;14.27;;;9.48;;
41921;SDS011;27609;51.002;5.354;2023-04-24T00:02:32;15.18;;;10.07;;
41921;SDS011;27609;51.002;5.354;2023-04-24T00:04:58;16.45;;;9.32;;
41921;SDS011;27609;51.002;5.354;2023-04-24T00:07:27;14.45;;;9.75;;
41921;SDS011;27609;51.002;5.354;2023-04-24T00:09:52;16.52;;;9.70;;
41921;SDS011;27609;51.002;5.354;2023-04-24T00:12:18;16.13;;;9.73;;
41921;SDS011;27609;51.002;5.354;2023-04-24T00:14:44;16.45;;;10.43;;
41921;SDS011;27609;51.002;5.354;2023-04-24T00:17:09;17.90;;;11.30;;
41921;SDS011;27609;51.002;5.354;2023-04-24T00:19:35;17.77;;;11.27;;
41921;SDS011;27609;51.002;5.354;2023-04-24T00:22:01;20.05;;;10.57;;
41921;SDS011;27609;51.002;5.354;2023-04-24T00:24:27;17.80;;;11.27;;
41921;SDS011;27609;51.002;5.354;2023-04-24T00:26:53;17.17;;;12.15;;
41921;SDS011;27609;51.002;5.354;2023-04-24T00:29:20;24.58;;;10.55;;
41921;SDS011;27609;51.002;5.354;2023-04-24T00:31:46;20.33;;;12.70;;
41921;SDS011;27609;51.002;5.354;2023-04-24T00:34:11;18.73;;;11.95;;
41921;SDS011;27609;51.002;5.354;2023-04-24T00:36:37;25.05;;;12.55;;
41921;SDS011;27609;51.002;5.354;2023-04-24T00:39:03;27.20;;;12.73;;
41921;SDS011;27609;51.002;5.354;2023-04-24T00:41:29;19.67;;;11.65;;
41921;SDS011;27609;51.002;5.354;2023-04-24T00:43:55;19.15;;;12.43;;
41921;SDS011;27609;51.002;5.354;2023-04-24T00:46:21;23.48;;;12.50;;
41921;SDS011;27609;51.002;5.354;2023-04-24T00:48:47;25.00;;;12.98;;
41921;SDS011;27609;51.002;5.354;2023-04-24T00:51:12;22.02;;;13.77;;
41921;SDS011;27609;51.002;5.354;2023-04-24T00:53:38;23.75;;;13.38;;
41921;SDS011;27609;51.002;5.354;2023-04-24T00:56:04;24.13;;;14.00;;
41921;SDS011;27609;51.002;5.354;2023-04-24T00:58:30;25.60;;;13.68;;
41921;SDS011;27609;51.002;5.354;2023-04-24T01:00:56;23.75;;;14.23;;
41921;SDS011;27609;51.002;5.354;2023-04-24T01:03:24;29.65;;;14.43;;
41921;SDS011;27609;51.002;5.354;2023-04-24T01:05:54;24.27;;;13.93;;
41921;SDS011;27609;51.002;5.354;2023-04-24T01:08:20;26.08;;;13.93;;
41921;SDS011;27609;51.002;5.354;2023-04-24T01:10:48;22.98;;;15.55;;
41921;SDS011;27609;51.002;5.354;2023-04-24T01:13:21;23.08;;;15.73;;
41921;SDS011;27609;51.002;5.354;2023-04-24T01:15:47;22.65;;;15.05;;
41921;SDS011;27609;51.002;5.354;2023-04-24T01:18:13;24.83;;;14.20;;
41921;SDS011;27609;51.002;5.354;2023-04-24T01:20:40;25.33;;;15.52;;
41921;SDS011;27609;51.002;5.354;2023-04-24T01:23:07;23.92;;;14.93;;
41921;SDS011;27609;51.002;5.354;2023-04-24T01:25:34;25.45;;;15.65;;
41921;SDS011;27609;51.002;5.354;2023-04-24T01:28:00;24.90;;;15.13;;
41921;SDS011;27609;51.002;5.354;2023-04-24T01:30:26;28.90;;;15.07;;
41921;SDS011;27609;51.002;5.354;2023-04-24T01:32:53;28.83;;;15.70;;
41921;SDS011;27609;51.002;5.354;2023-04-24T01:35:20;30.92;;;14.57;;
41921;SDS011;27609;51.002;5.354;2023-04-24T01:37:45;28.70;;;15.68;;
41921;SDS011;27609;51.002;5.354;2023-04-24T01:40:11;21.80;;;15.25;;
41921;SDS011;27609;51.002;5.354;2023-04-24T01:42:37;26.17;;;15.02;;
41921;SDS011;27609;51.002;5.354;2023-04-24T01:45:03;25.63;;;14.65;;
41921;SDS011;27609;51.002;5.354;2023-04-24T01:47:30;26.17;;;14.75;;
41921;SDS011;27609;51.002;5.354;2023-04-24T01:49:57;25.13;;;15.32;;
41921;SDS011;27609;51.002;5.354;2023-04-24T01:52:23;22.20;;;15.23;;
41921;SDS011;27609;51.002;5.354;2023-04-24T01:54:48;27.65;;;15.02;;
41921;SDS011;27609;51.002;5.354;2023-04-24T01:57:14;28.15;;;14.60;;
41921;SDS011;27609;51.002;5.354;2023-04-24T01:59:41;22.38;;;14.40;;
41921;SDS011;27609;51.002;5.354;2023-04-24T02:02:07;30.48;;;16.00;;
41921;SDS011;27609;51.002;5.354;2023-04-24T02:04:33;29.52;;;16.05;;
41921;SDS011;27609;51.002;5.354;2023-04-24T02:06:58;24.25;;;16.45;;
41921;SDS011;27609;51.002;5.354;2023-04-24T02:09:24;32.17;;;17.30;;
41921;SDS011;27609;51.002;5.354;2023-04-24T02:11:50;33.08;;;17.63;;
41921;SDS011;27609;51.002;5.354;2023-04-24T02:14:16;24.35;;;16.17;;
41921;SDS011;27609;51.002;5.354;2023-04-24T02:16:41;33.97;;;18.15;;
41921;SDS011;27609;51.002;5.354;2023-04-24T02:19:07;29.38;;;16.60;;
41921;SDS011;27609;51.002;5.354;2023-04-24T02:21:33;27.70;;;15.88;;
41921;SDS011;27609;51.002;5.354;2023-04-24T02:23:59;28.65;;;17.17;;
41921;SDS011;27609;51.002;5.354;2023-04-24T02:26:25;25.55;;;16.95;;
41921;SDS011;27609;51.002;5.354;2023-04-24T02:28:51;26.38;;;15.32;;
41921;SDS011;27609;51.002;5.354;2023-04-24T02:31:16;28.38;;;17.38;;
41921;SDS011;27609;51.002;5.354;2023-04-24T02:33:42;26.35;;;15.90;;
41921;SDS011;27609;51.002;5.354;2023-04-24T02:36:08;27.77;;;16.92;;
41921;SDS011;27609;51.002;5.354;2023-04-24T02:38:33;32.28;;;16.65;;
41921;SDS011;27609;51.002;5.354;2023-04-24T02:40:59;28.73;;;15.50;;
41921;SDS011;27609;51.002;5.354;2023-04-24T02:43:27;21.70;;;14.00;;
41921;SDS011;27609;51.002;5.354;2023-04-24T02:45:53;21.85;;;14.63;;
41921;SDS011;27609;51.002;5.354;2023-04-24T02:48:18;19.95;;;13.82;;
41921;SDS011;27609;51.002;5.354;2023-04-24T02:50:45;17.38;;;14.32;;
41921;SDS011;27609;51.002;5.354;2023-04-24T02:53:11;25.33;;;14.98;;
41921;SDS011;27609;51.002;5.354;2023-04-24T02:55:37;20.38;;;13.57;;
41921;SDS011;27609;51.002;5.354;2023-04-24T02:58:03;28.20;;;14.48;;
41921;SDS011;27609;51.002;5.354;2023-04-24T03:00:29;20.20;;;14.32;;
41921;SDS011;27609;51.002;5.354;2023-04-24T03:02:54;18.58;;;12.80;;
41921;SDS011;27609;51.002;5.354;2023-04-24T03:05:20;20.02;;;13.70;;
41921;SDS011;27609;51.002;5.354;2023-04-24T03:07:46;21.83;;;13.43;;
41921;SDS011;27609;51.002;5.354;2023-04-24T03:10:12;24.13;;;14.52;;
41921;SDS011;27609;51.002;5.354;2023-04-24T03:12:37;21.15;;;14.48;;
41921;SDS011;27609;51.002;5.354;2023-04-24T03:15:03;22.30;;;13.88;;
41921;SDS011;27609;51.002;5.354;2023-04-24T03:17:30;18.80;;;14.43;;
41921;SDS011;27609;51.002;5.354;2023-04-24T03:19:55;20.85;;;14.32;;
41921;SDS011;27609;51.002;5.354;2023-04-24T03:22:21;23.13;;;14.10;;
41921;SDS011;27609;51.002;5.354;2023-04-24T03:24:47;22.58;;;15.32;;
41921;SDS011;27609;51.002;5.354;2023-04-24T03:27:13;21.10;;;14.82;;
41921;SDS011;27609;51.002;5.354;2023-04-24T03:29:38;22.23;;;16.17;;
41921;SDS011;27609;51.002;5.354;2023-04-24T03:32:04;23.35;;;16.17;;
41921;SDS011;27609;51.002;5.354;2023-04-24T03:34:30;27.13;;;16.85;;
41921;SDS011;27609;51.002;5.354;2023-04-24T03:36:56;29.38;;;16.60;;
41921;SDS011;27609;51.002;5.354;2023-04-24T03:39:21;30.00;;;17.17;;
41921;SDS011;27609;51.002;5.354;2023-04-24T03:41:47;31.10;;;18.60;;
41921;SDS011;27609;51.002;5.354;2023-04-24T03:44:13;26.42;;;16.98;;
41921;SDS011;27609;51.002;5.354;2023-04-24T03:46:38;32.70;;;17.63;;
41921;SDS011;27609;51.002;5.354;2023-04-24T03:49:04;27.67;;;18.88;;
41921;SDS011;27609;51.002;5.354;2023-04-24T03:51:30;31.88;;;18.15;;
41921;SDS011;27609;51.002;5.354;2023-04-24T03:53:57;31.13;;;19.58;;
41921;SDS011;27609;51.002;5.354;2023-04-24T03:56:22;30.83;;;18.80;;
41921;SDS011;27609;51.002;5.354;2023-04-24T03:58:48;32.28;;;19.42;;
41921;SDS011;27609;51.002;5.354;2023-04-24T04:01:14;29.23;;;17.85;;
41921;SDS011;27609;51.002;5.354;2023-04-24T04:03:41;29.73;;;16.60;;
41921;SDS011;27609;51.002;5.354;2023-04-24T04:06:06;27.27;;;16.58;;
41921;SDS011;27609;51.002;5.354;2023-04-24T04:08:32;26.05;;;16.95;;
41921;SDS011;27609;51.002;5.354;2023-04-24T04:10:58;25.95;;;16.38;;
41921;SDS011;27609;51.002;5.354;2023-04-24T04:13:24;27.92;;;17.23;;
41921;SDS011;27609;51.002;5.354;2023-04-24T04:15:49;26.58;;;17.30;;
41921;SDS011;27609;51.002;5.354;2023-04-24T04:18:15;26.75;;;15.32;;
41921;SDS011;27609;51.002;5.354;2023-04-24T04:20:41;27.27;;;16.50;;
41921;SDS011;27609;51.002;5.354;2023-04-24T04:23:07;30.08;;;16.58;;
41921;SDS011;27609;51.002;5.354;2023-04-24T04:25:32;29.20;;;16.90;;
41921;SDS011;27609;51.002;5.354;2023-04-24T04:27:59;32.53;;;17.77;;
41921;SDS011;27609;51.002;5.354;2023-04-24T04:30:25;29.27;;;15.80;;
41921;SDS011;27609;51.002;5.354;2023-04-24T04:32:51;29.75;;;17.15;;
41921;SDS011;27609;51.002;5.354;2023-04-24T04:35:16;25.15;;;15.10;;
41921;SDS011;27609;51.002;5.354;2023-04-24T04:37:42;29.27;;;16.58;;
41921;SDS011;27609;51.002;5.354;2023-04-24T04:40:08;27.63;;;15.65;;
41921;SDS011;27609;51.002;5.354;2023-04-24T04:42:37;23.83;;;13.95;;
41921;SDS011;27609;51.002;5.354;2023-04-24T04:45:06;22.02;;;13.80;;
41921;SDS011;27609;51.002;5.354;2023-04-24T04:47:36;26.95;;;13.75;;
41921;SDS011;27609;51.002;5.354;2023-04-24T04:50:02;24.70;;;15.57;;
41921;SDS011;27609;51.002;5.354;2023-04-24T04:52:28;24.02;;;13.65;;
41921;SDS011;27609;51.002;5.354;2023-04-24T04:54:54;27.77;;;14.27;;
41921;SDS011;27609;51.002;5.354;2023-04-24T04:57:20;21.73;;;14.45;;
41921;SDS011;27609;51.002;5.354;2023-04-24T04:59:46;21.55;;;12.75;;
41921;SDS011;27609;51.002;5.354;2023-04-24T05:02:12;22.15;;;13.10;;
41921;SDS011;27609;51.002;5.354;2023-04-24T05:04:38;28.15;;;13.32;;
41921;SDS011;27609;51.002;5.354;2023-04-24T05:07:03;20.25;;;13.38;;
41921;SDS011;27609;51.002;5.354;2023-04-24T05:09:29;19.85;;;12.95;;
41921;SDS011;27609;51.002;5.354;2023-04-24T05:11:55;22.73;;;12.35;;
41921;SDS011;27609;51.002;5.354;2023-04-24T05:14:21;19.75;;;12.07;;
41921;SDS011;27609;51.002;5.354;2023-04-24T05:16:47;18.48;;;10.98;;
41921;SDS011;27609;51.002;5.354;2023-04-24T05:19:13;14.10;;;11.15;;
41921;SDS011;27609;51.002;5.354;2023-04-24T05:21:39;16.95;;;9.73;;
41921;SDS011;27609;51.002;5.354;2023-04-24T05:24:06;14.23;;;8.27;;
41921;SDS011;27609;51.002;5.354;2023-04-24T05:26:32;10.60;;;7.18;;
41921;SDS011;27609;51.002;5.354;2023-04-24T05:28:57;10.55;;;6.63;;
41921;SDS011;27609;51.002;5.354;2023-04-24T05:31:23;10.30;;;6.28;;
41921;SDS011;27609;51.002;5.354;2023-04-24T05:33:50;10.48;;;7.30;;
41921;SDS011;27609;51.002;5.354;2023-04-24T05:36:16;9.75;;;6.78;;
41921;SDS011;27609;51.002;5.354;2023-04-24T05:38:41;8.82;;;6.97;;
41921;SDS011;27609;51.002;5.354;2023-04-24T05:41:07;9.45;;;5.43;;
41921;SDS011;27609;51.002;5.354;2023-04-24T05:43:33;9.13;;;5.18;;
41921;SDS011;27609;51.002;5.354;2023-04-24T05:45:58;7.43;;;4.72;;
41921;SDS011;27609;51.002;5.354;2023-04-24T05:48:24;10.07;;;4.90;;
41921;SDS011;27609;51.002;5.354;2023-04-24T05:50:50;6.97;;;4.38;;
41921;SDS011;27609;51.002;5.354;2023-04-24T05:53:17;11.20;;;5.85;;
41921;SDS011;27609;51.002;5.354;2023-04-24T05:55:43;7.55;;;5.10;;
41921;SDS011;27609;51.002;5.354;2023-04-24T05:58:09;9.55;;;5.85;;
41921;SDS011;27609;51.002;5.354;2023-04-24T06:00:36;8.98;;;6.35;;
41921;SDS011;27609;51.002;5.354;2023-04-24T06:03:02;10.95;;;6.47;;
41921;SDS011;27609;51.002;5.354;2023-04-24T06:05:28;17.65;;;8.25;;
41921;SDS011;27609;51.002;5.354;2023-04-24T06:07:55;12.98;;;9.30;;
41921;SDS011;27609;51.002;5.354;2023-04-24T06:10:21;16.83;;;9.55;;
41921;SDS011;27609;51.002;5.354;2023-04-24T06:12:47;13.65;;;8.50;;
41921;SDS011;27609;51.002;5.354;2023-04-24T06:15:13;14.82;;;9.35;;
41921;SDS011;27609;51.002;5.354;2023-04-24T06:17:38;17.88;;;9.95;;
41921;SDS011;27609;51.002;5.354;2023-04-24T06:20:05;14.82;;;9.93;;
41921;SDS011;27609;51.002;5.354;2023-04-24T06:22:31;15.85;;;10.25;;
41921;SDS011;27609;51.002;5.354;2023-04-24T06:24:57;16.38;;;10.38;;
41921;SDS011;27609;51.002;5.354;2023-04-24T06:27:23;18.92;;;8.93;;
41921;SDS011;27609;51.002;5.354;2023-04-24T06:29:49;18.30;;;9.82;;
41921;SDS011;27609;51.002;5.354;2023-04-24T06:32:19;15.40;;;10.93;;
41921;SDS011;27609;51.002;5.354;2023-04-24T06:34:48;17.88;;;12.15;;
41921;SDS011;27609;51.002;5.354;2023-04-24T06:37:15;18.40;;;11.68;;
41921;SDS011;27609;51.002;5.354;2023-04-24T06:39:41;19.65;;;11.35;;
41921;SDS011;27609;51.002;5.354;2023-04-24T06:42:07;16.75;;;11.07;;
41921;SDS011;27609;51.002;5.354;2023-04-24T06:44:34;20.98;;;11.88;;
41921;SDS011;27609;51.002;5.354;2023-04-24T06:47:05;22.77;;;11.02;;
41921;SDS011;27609;51.002;5.354;2023-04-24T06:49:32;22.92;;;11.93;;
41921;SDS011;27609;51.002;5.354;2023-04-24T06:51:58;21.90;;;10.52;;
41921;SDS011;27609;51.002;5.354;2023-04-24T06:54:24;24.98;;;11.65;;
41921;SDS011;27609;51.002;5.354;2023-04-24T06:56:49;15.85;;;11.55;;
41921;SDS011;27609;51.002;5.354;2023-04-24T06:59:16;17.17;;;11.30;;
41921;SDS011;27609;51.002;5.354;2023-04-24T07:01:42;16.17;;;9.45;;
41921;SDS011;27609;51.002;5.354;2023-04-24T07:04:07;19.98;;;11.68;;
41921;SDS011;27609;51.002;5.354;2023-04-24T07:06:33;17.50;;;10.80;;
41921;SDS011;27609;51.002;5.354;2023-04-24T07:09:00;17.73;;;10.43;;
41921;SDS011;27609;51.002;5.354;2023-04-24T07:11:26;18.50;;;11.60;;
41921;SDS011;27609;51.002;5.354;2023-04-24T07:13:54;16.33;;;9.80;;
41921;SDS011;27609;51.002;5.354;2023-04-24T07:16:20;21.73;;;11.90;;
41921;SDS011;27609;51.002;5.354;2023-04-24T07:18:46;21.67;;;11.57;;
41921;SDS011;27609;51.002;5.354;2023-04-24T07:21:12;15.30;;;11.05;;
41921;SDS011;27609;51.002;5.354;2023-04-24T07:23:37;24.83;;;12.30;;
41921;SDS011;27609;51.002;5.354;2023-04-24T07:26:03;16.48;;;11.73;;
41921;SDS011;27609;51.002;5.354;2023-04-24T07:28:29;20.17;;;12.10;;
41921;SDS011;27609;51.002;5.354;2023-04-24T07:30:56;23.60;;;12.50;;
41921;SDS011;27609;51.002;5.354;2023-04-24T07:33:23;18.58;;;11.63;;
41921;SDS011;27609;51.002;5.354;2023-04-24T07:35:49;24.13;;;13.07;;
41921;SDS011;27609;51.002;5.354;2023-04-24T07:38:15;24.92;;;13.65;;
41921;SDS011;27609;51.002;5.354;2023-04-24T07:40:41;22.40;;;14.05;;
41921;SDS011;27609;51.002;5.354;2023-04-24T07:43:06;23.00;;;14.07;;
41921;SDS011;27609;51.002;5.354;2023-04-24T07:45:32;24.13;;;15.07;;
41921;SDS011;27609;51.002;5.354;2023-04-24T07:48:02;25.20;;;13.63;;
41921;SDS011;27609;51.002;5.354;2023-04-24T07:50:28;31.42;;;15.07;;
41921;SDS011;27609;51.002;5.354;2023-04-24T07:52:54;25.23;;;13.77;;
41921;SDS011;27609;51.002;5.354;2023-04-24T07:55:20;14.52;;;10.27;;
41921;SDS011;27609;51.002;5.354;2023-04-24T07:57:45;20.33;;;12.23;;
41921;SDS011;27609;51.002;5.354;2023-04-24T08:00:11;14.30;;;9.98;;
41921;SDS011;27609;51.002;5.354;2023-04-24T08:02:37;15.80;;;9.93;;
41921;SDS011;27609;51.002;5.354;2023-04-24T08:05:03;22.75;;;10.57;;
41921;SDS011;27609;51.002;5.354;2023-04-24T08:07:29;20.23;;;11.82;;
41921;SDS011;27609;51.002;5.354;2023-04-24T08:09:55;19.25;;;12.15;;
41921;SDS011;27609;51.002;5.354;2023-04-24T08:12:21;22.77;;;13.80;;
41921;SDS011;27609;51.002;5.354;2023-04-24T08:14:46;21.67;;;13.40;;
41921;SDS011;27609;51.002;5.354;2023-04-24T08:17:12;23.60;;;15.68;;
41921;SDS011;27609;51.002;5.354;2023-04-24T08:19:39;19.65;;;12.65;;
41921;SDS011;27609;51.002;5.354;2023-04-24T08:22:12;27.58;;;14.13;;
41921;SDS011;27609;51.002;5.354;2023-04-24T08:24:38;21.75;;;14.40;;
41921;SDS011;27609;51.002;5.354;2023-04-24T08:27:04;23.20;;;13.02;;
41921;SDS011;27609;51.002;5.354;2023-04-24T08:29:29;22.13;;;13.70;;
41921;SDS011;27609;51.002;5.354;2023-04-24T08:31:55;25.77;;;13.18;;
41921;SDS011;27609;51.002;5.354;2023-04-24T08:34:21;26.27;;;11.73;;
41921;SDS011;27609;51.002;5.354;2023-04-24T08:36:47;21.20;;;11.55;;
41921;SDS011;27609;51.002;5.354;2023-04-24T08:39:14;22.70;;;12.85;;
41921;SDS011;27609;51.002;5.354;2023-04-24T08:41:41;30.52;;;12.88;;
41921;SDS011;27609;51.002;5.354;2023-04-24T08:44:11;28.50;;;12.27;;
41921;SDS011;27609;51.002;5.354;2023-04-24T08:46:39;23.58;;;13.38;;
41921;SDS011;27609;51.002;5.354;2023-04-24T08:49:05;26.02;;;12.13;;
41921;SDS011;27609;51.002;5.354;2023-04-24T08:51:31;19.75;;;11.15;;
41921;SDS011;27609;51.002;5.354;2023-04-24T08:53:57;18.55;;;10.43;;
41921;SDS011;27609;51.002;5.354;2023-04-24T08:56:23;20.38;;;10.85;;
41921;SDS011;27609;51.002;5.354;2023-04-24T08:58:50;35.47;;;10.60;;
41921;SDS011;27609;51.002;5.354;2023-04-24T09:01:18;21.55;;;10.68;;
41921;SDS011;27609;51.002;5.354;2023-04-24T09:03:46;14.90;;;7.25;;
41921;SDS011;27609;51.002;5.354;2023-04-24T09:06:14;16.20;;;7.60;;
41921;SDS011;27609;51.002;5.354;2023-04-24T09:08:42;16.05;;;7.20;;
41921;SDS011;27609;51.002;5.354;2023-04-24T09:11:10;13.82;;;6.82;;
41921;SDS011;27609;51.002;5.354;2023-04-24T09:13:36;16.67;;;7.00;;
41921;SDS011;27609;51.002;5.354;2023-04-24T09:16:03;15.60;;;6.60;;
41921;SDS011;27609;51.002;5.354;2023-04-24T09:18:28;11.75;;;6.53;;
41921;SDS011;27609;51.002;5.354;2023-04-24T09:23:28;16.40;;;7.00;;
41921;SDS011;27609;51.002;5.354;2023-04-24T09:25:55;19.45;;;7.45;;
41921;SDS011;27609;51.002;5.354;2023-04-24T09:28:25;18.80;;;6.97;;
41921;SDS011;27609;51.002;5.354;2023-04-24T09:31:07;11.75;;;4.55;;
41921;SDS011;27609;51.002;5.354;2023-04-24T09:33:34;8.75;;;4.75;;
41921;SDS011;27609;51.002;5.354;2023-04-24T09:36:00;10.63;;;4.80;;
41921;SDS011;27609;51.002;5.354;2023-04-24T09:38:34;7.53;;;4.47;;
41921;SDS011;27609;51.002;5.354;2023-04-24T09:41:07;10.75;;;4.78;;
41921;SDS011;27609;51.002;5.354;2023-04-24T09:43:38;9.70;;;4.50;;
41921;SDS011;27609;51.002;5.354;2023-04-24T09:46:07;12.35;;;5.50;;
41921;SDS011;27609;51.002;5.354;2023-04-24T09:51:01;12.48;;;5.78;;
41921;SDS011;27609;51.002;5.354;2023-04-24T09:53:29;10.98;;;4.22;;
41921;SDS011;27609;51.002;5.354;2023-04-24T09:55:56;15.18;;;5.57;;
41921;SDS011;27609;51.002;5.354;2023-04-24T09:58:28;13.52;;;4.65;;
41921;SDS011;27609;51.002;5.354;2023-04-24T10:00:54;15.95;;;3.88;;
41921;SDS011;27609;51.002;5.354;2023-04-24T10:03:22;10.88;;;4.65;;
41921;SDS011;27609;51.002;5.354;2023-04-24T10:05:51;13.63;;;4.55;;
41921;SDS011;27609;51.002;5.354;2023-04-24T10:08:17;14.68;;;4.38;;
41921;SDS011;27609;51.002;5.354;2023-04-24T10:10:43;11.40;;;4.78;;
41921;SDS011;27609;51.002;5.354;2023-04-24T10:13:10;12.18;;;4.97;;
41921;SDS011;27609;51.002;5.354;2023-04-24T10:15:38;11.77;;;4.70;;
41921;SDS011;27609;51.002;5.354;2023-04-24T10:18:05;15.93;;;5.22;;
41921;SDS011;27609;51.002;5.354;2023-04-24T10:20:32;13.45;;;5.38;;
41921;SDS011;27609;51.002;5.354;2023-04-24T10:23:00;12.52;;;5.53;;
41921;SDS011;27609;51.002;5.354;2023-04-24T10:25:27;19.58;;;6.18;;
41921;SDS011;27609;51.002;5.354;2023-04-24T10:27:54;19.20;;;5.90;;
41921;SDS011;27609;51.002;5.354;2023-04-24T10:30:23;12.57;;;5.65;;
41921;SDS011;27609;51.002;5.354;2023-04-24T10:32:49;10.00;;;5.53;;
41921;SDS011;27609;51.002;5.354;2023-04-24T10:35:15;15.65;;;4.68;;
41921;SDS011;27609;51.002;5.354;2023-04-24T10:37:46;20.10;;;5.60;;
41921;SDS011;27609;51.002;5.354;2023-04-24T10:40:19;11.60;;;5.70;;
41921;SDS011;27609;51.002;5.354;2023-04-24T10:42:58;10.98;;;4.90;;
41921;SDS011;27609;51.002;5.354;2023-04-24T10:45:24;10.70;;;4.97;;
41921;SDS011;27609;51.002;5.354;2023-04-24T10:48:11;12.73;;;4.15;;
41921;SDS011;27609;51.002;5.354;2023-04-24T10:50:42;15.45;;;4.20;;
41921;SDS011;27609;51.002;5.354;2023-04-24T10:53:18;9.38;;;4.38;;
41921;SDS011;27609;51.002;5.354;2023-04-24T10:58:12;13.50;;;4.78;;
41921;SDS011;27609;51.002;5.354;2023-04-24T11:00:40;12.30;;;4.80;;
41921;SDS011;27609;51.002;5.354;2023-04-24T11:03:07;13.77;;;4.32;;
41921;SDS011;27609;51.002;5.354;2023-04-24T11:08:42;9.43;;;4.72;;
41921;SDS011;27609;51.002;5.354;2023-04-24T11:11:10;11.13;;;4.35;;
41921;SDS011;27609;51.002;5.354;2023-04-24T11:16:31;16.92;;;4.43;;
41921;SDS011;27609;51.002;5.354;2023-04-24T11:21:42;11.27;;;5.00;;
41921;SDS011;27609;51.002;5.354;2023-04-24T11:24:24;10.38;;;4.82;;
41921;SDS011;27609;51.002;5.354;2023-04-24T11:27:14;16.50;;;4.70;;
41921;SDS011;27609;51.002;5.354;2023-04-24T11:29:42;10.88;;;4.82;;
41921;SDS011;27609;51.002;5.354;2023-04-24T11:32:29;7.80;;;4.05;;
41921;SDS011;27609;51.002;5.354;2023-04-24T11:35:06;10.77;;;4.38;;
41921;SDS011;27609;51.002;5.354;2023-04-24T11:37:36;9.00;;;4.30;;
41921;SDS011;27609;51.002;5.354;2023-04-24T11:40:08;10.52;;;3.97;;
41921;SDS011;27609;51.002;5.354;2023-04-24T11:42:35;9.40;;;4.35;;
41921;SDS011;27609;51.002;5.354;2023-04-24T11:45:01;6.90;;;3.38;;
41921;SDS011;27609;51.002;5.354;2023-04-24T11:47:32;9.48;;;3.15;;
41921;SDS011;27609;51.002;5.354;2023-04-24T11:49:58;6.10;;;2.97;;
41921;SDS011;27609;51.002;5.354;2023-04-24T11:52:25;6.40;;;3.08;;
41921;SDS011;27609;51.002;5.354;2023-04-24T11:54:51;9.00;;;3.63;;
41921;SDS011;27609;51.002;5.354;2023-04-24T11:57:20;6.65;;;3.72;;
41921;SDS011;27609;51.002;5.354;2023-04-24T11:59:48;11.73;;;5.43;;
41921;SDS011;27609;51.002;5.354;2023-04-24T12:02:24;8.57;;;5.63;;
41921;SDS011;27609;51.002;5.354;2023-04-24T12:04:52;7.72;;;4.90;;
41921;SDS011;27609;51.002;5.354;2023-04-24T12:07:19;7.97;;;5.40;;
41921;SDS011;27609;51.002;5.354;2023-04-24T12:12:23;10.93;;;5.47;;
41921;SDS011;27609;51.002;5.354;2023-04-24T12:14:54;9.10;;;5.22;;
41921;SDS011;27609;51.002;5.354;2023-04-24T12:17:31;12.80;;;5.88;;
41921;SDS011;27609;51.002;5.354;2023-04-24T12:20:07;6.43;;;4.93;;
41921;SDS011;27609;51.002;5.354;2023-04-24T12:22:47;7.75;;;4.63;;
41921;SDS011;27609;51.002;5.354;2023-04-24T12:25:16;12.63;;;5.38;;
41921;SDS011;27609;51.002;5.354;2023-04-24T12:27:46;10.85;;;5.95;;
41921;SDS011;27609;51.002;5.354;2023-04-24T12:30:17;11.52;;;5.93;;
41921;SDS011;27609;51.002;5.354;2023-04-24T12:32:45;8.45;;;5.85;;
41921;SDS011;27609;51.002;5.354;2023-04-24T12:35:14;10.95;;;5.95;;
41921;SDS011;27609;51.002;5.354;2023-04-24T12:37:45;11.65;;;5.35;;
41921;SDS011;27609;51.002;5.354;2023-04-24T12:40:11;11.07;;;5.60;;
41921;SDS011;27609;51.002;5.354;2023-04-24T12:42:42;7.95;;;5.63;;
41921;SDS011;27609;51.002;5.354;2023-04-24T12:45:09;9.70;;;6.70;;
41921;SDS011;27609;51.002;5.354;2023-04-24T12:47:37;8.00;;;5.43;;
41921;SDS011;27609;51.002;5.354;2023-04-24T12:50:04;9.82;;;5.65;;
41921;SDS011;27609;51.002;5.354;2023-04-24T12:52:31;13.65;;;5.70;;
41921;SDS011;27609;51.002;5.354;2023-04-24T12:54:57;9.05;;;5.45;;
41921;SDS011;27609;51.002;5.354;2023-04-24T12:57:24;10.10;;;5.50;;
41921;SDS011;27609;51.002;5.354;2023-04-24T12:59:53;9.60;;;5.30;;
41921;SDS011;27609;51.002;5.354;2023-04-24T13:02:20;15.55;;;6.60;;
41921;SDS011;27609;51.002;5.354;2023-04-24T13:04:47;10.45;;;5.85;;
41921;SDS011;27609;51.002;5.354;2023-04-24T13:07:13;13.68;;;5.78;;
41921;SDS011;27609;51.002;5.354;2023-04-24T13:09:40;7.32;;;4.85;;
41921;SDS011;27609;51.002;5.354;2023-04-24T13:12:06;9.02;;;4.43;;
41921;SDS011;27609;51.002;5.354;2023-04-24T13:14:32;11.60;;;4.47;;
41921;SDS011;27609;51.002;5.354;2023-04-24T13:16:59;7.25;;;4.07;;
41921;SDS011;27609;51.002;5.354;2023-04-24T13:19:25;9.95;;;4.53;;
41921;SDS011;27609;51.002;5.354;2023-04-24T13:21:51;14.98;;;5.50;;
41921;SDS011;27609;51.002;5.354;2023-04-24T13:24:17;6.93;;;4.05;;
41921;SDS011;27609;51.002;5.354;2023-04-24T13:26:43;5.70;;;3.70;;
41921;SDS011;27609;51.002;5.354;2023-04-24T13:29:09;8.63;;;3.95;;
41921;SDS011;27609;51.002;5.354;2023-04-24T13:31:35;6.35;;;3.60;;
41921;SDS011;27609;51.002;5.354;2023-04-24T13:34:01;7.13;;;4.45;;
41921;SDS011;27609;51.002;5.354;2023-04-24T13:36:28;8.23;;;3.83;;
41921;SDS011;27609;51.002;5.354;2023-04-24T13:38:55;7.05;;;4.13;;
41921;SDS011;27609;51.002;5.354;2023-04-24T13:41:20;6.97;;;3.13;;
41921;SDS011;27609;51.002;5.354;2023-04-24T13:43:46;7.03;;;4.30;;
41921;SDS011;27609;51.002;5.354;2023-04-24T13:46:12;7.78;;;3.80;;
41921;SDS011;27609;51.002;5.354;2023-04-24T13:48:38;7.95;;;3.70;;
41921;SDS011;27609;51.002;5.354;2023-04-24T13:51:03;8.02;;;3.25;;
41921;SDS011;27609;51.002;5.354;2023-04-24T13:53:29;5.20;;;2.47;;
41921;SDS011;27609;51.002;5.354;2023-04-24T13:55:55;2.72;;;2.15;;
41921;SDS011;27609;51.002;5.354;2023-04-24T13:58:21;5.75;;;2.47;;
41921;SDS011;27609;51.002;5.354;2023-04-24T14:00:46;5.88;;;2.25;;
41921;SDS011;27609;51.002;5.354;2023-04-24T14:03:12;4.90;;;2.28;;
41921;SDS011;27609;51.002;5.354;2023-04-24T14:05:38;4.25;;;2.38;;
41921;SDS011;27609;51.002;5.354;2023-04-24T14:08:04;6.90;;;2.45;;
41921;SDS011;27609;51.002;5.354;2023-04-24T14:10:30;5.18;;;2.88;;
41921;SDS011;27609;51.002;5.354;2023-04-24T14:12:56;6.00;;;2.55;;
41921;SDS011;27609;51.002;5.354;2023-04-24T14:15:22;5.57;;;2.83;;
41921;SDS011;27609;51.002;5.354;2023-04-24T14:17:48;8.93;;;2.60;;
41921;SDS011;27609;51.002;5.354;2023-04-24T14:20:14;6.75;;;2.38;;
41921;SDS011;27609;51.002;5.354;2023-04-24T14:22:40;3.20;;;2.22;;
41921;SDS011;27609;51.002;5.354;2023-04-24T14:25:06;5.68;;;2.58;;
41921;SDS011;27609;51.002;5.354;2023-04-24T14:27:32;3.25;;;2.28;;
41921;SDS011;27609;51.002;5.354;2023-04-24T14:29:59;7.70;;;2.50;;
41921;SDS011;27609;51.002;5.354;2023-04-24T14:32:25;6.88;;;2.70;;
41921;SDS011;27609;51.002;5.354;2023-04-24T14:34:51;6.65;;;2.70;;
41921;SDS011;27609;51.002;5.354;2023-04-24T14:37:17;5.38;;;3.17;;
41921;SDS011;27609;51.002;5.354;2023-04-24T14:39:43;4.00;;;2.20;;
41921;SDS011;27609;51.002;5.354;2023-04-24T14:42:11;4.05;;;2.40;;
41921;SDS011;27609;51.002;5.354;2023-04-24T14:44:37;4.90;;;2.53;;
41921;SDS011;27609;51.002;5.354;2023-04-24T14:47:03;3.20;;;1.90;;